Airfield :
LOGIN :

Register | Disclaimer

   EN    FR    IT 

 










Legend :    VFR   Marginal VFR   IFR   Intensive IFR   Very Intensive IFR
Visi :
Ceiling :
>= 8 km
>= 3000ft
5 to 8 km
1000 to 3000 ft
1500m to 5 km
500 to 1000 ft
800 to 1500m
200 to 500 ft
< 800m
< 200 ft
Symbols :   Thunderstorms  Fog  Heavy snow  Heavy precipitations  Wind > 20 kt
SIGMETs :     Misc.  Thunderstorms  Icing  Turbulence  Mountain Waves  Volcanic Ashes







- Airport Elevation : 2595 ft
- IATA code : SLM


LESA - Salamanca Matacan

CURRENT METAR :
  • 251200Z 29015G25KT 9999 FEW040 19/06 Q1009

EXPIRED METARs :
  • 251130Z 29015KT 250V320 9999 FEW035 18/06 Q1010
  • 251100Z 28017KT 250V310 9999 FEW035 19/06 Q1010
  • 251030Z 27014KT 210V290 9999 FEW035 19/06 Q1010
  • 251000Z 25014KT 220V280 9999 FEW035 19/06 Q1010
  • 250930Z 24009KT 210V290 CAVOK 18/07 Q1010

TAF TAF LESA
Valid from the 25 at 12:00 until the 26 at 12:00 UTC


251100Z 2512/2612 26014KT 9999 FEW030 TX22/2515Z TN02/2606Z
PROB40
TEMPO 2512/2518 27020G30KT
PROB40
TEMPO 2512/2518 FEW040TCU
PROB30
TEMPO 2514/2518 SHRA SCT035TCU
BECMG 2520/2522 VRB05KT
BECMG 2600/2602 02008KT
No reported NOTAMs for that airfield.
1 SIGMET reported for the Madrid FIR (LECM) :
 
Embedded thunderstorms
LECM SIGMET 8 VALID 251151/251400 LEVA
LECM MADRID FIR/UIR EMBD TS OBS AT 1150Z WI N4340 W00410 - N4010 W00520 - N40 W00150 - N43 W001 TOP FL340 MOV NE NC=



MET'MAP, your aeronautical weather chart ! - Copyright ORBIFLY December 2007 - Disclaimer

ORBIFLY MET'MAP TEAM :

Programming & Development : Alexandra Zaïnal
Concept & Development : Baudouin d'Aumeries
Co-Development & Prog : Marc-Olivier Méhu
Technical & hardware support : Manuel Goepfert

Contact : metmap@orbifly.com




SOURCES & CREDITS :

   NOAA